CST,Max TemperatureF,Mean TemperatureF,Min TemperatureF,Max Dew PointF,MeanDew PointF,Min DewpointF,Max Humidity, Mean Humidity, Min Humidity, Max Sea Level PressureIn, Mean Sea Level PressureIn, Min Sea Level PressureIn, Max VisibilityMiles, Mean VisibilityMiles, Min VisibilityMiles, Max Wind SpeedMPH, Mean Wind SpeedMPH, Max Gust SpeedMPH,PrecipitationIn, CloudCover, Events, WindDirDegrees
2013-12-1,50,34,18,28,23,16,91,67,42,30.21,30.07,29.88,10,8,7,9,3,10,0.00,0,,19
2013-12-2,65,45,24,32,28,21,92,60,28,29.86,29.64,29.54,10,9,4,13,5,17,0.00,1,,203
2013-12-3,44,36,28,32,29,25,89,74,58,29.72,29.62,29.52,10,7,4,21,10,25,0.00,3,,360
2013-12-4,34,25,16,30,16,4,92,74,56,30.18,29.82,29.67,10,7,2,26,18,34,T,7,Rain,327
2013-12-5,17,12,7,3,-4,-8,69,56,42,30.52,30.38,30.20,10,10,10,24,14,30,0.00,1,,330
2013-12-6,14,6,-3,-7,-8,-9,71,57,42,30.80,30.66,30.53,10,10,10,18,11,23,0.00,2,,352
2013-12-7,12,4,-5,6,-4,-10,78,64,50,30.84,30.66,30.39,10,8,2,13,6,16,0.01,3,Snow,57
2013-12-8,18,9,-1,12,9,-2,91,84,76,30.41,30.16,30.00,9,3,0,13,6,16,0.19,8,Fog-Snow,79
2013-12-9,16,3,-10,4,-4,-13,91,74,57,30.44,30.33,30.18,10,10,10,23,10,32,0.00,0,,243
2013-12-10,30,18,6,24,13,3,80,70,59,30.33,30.23,30.15,10,10,9,23,8,29,0.00,2,,233
2013-12-11,30,16,1,24,3,-6,85,67,48,30.74,30.57,30.26,10,10,7,28,11,34,T,2,Snow,342
2013-12-12,33,20,6,23,11,0,88,75,61,30.51,30.34,30.14,10,10,7,15,6,18,0.00,0,,192
2013-12-13,29,18,7,22,14,4,92,84,75,30.14,30.03,29.94,9,6,5,23,8,27,0.00,3,,12
2013-12-14,25,17,9,17,12,7,88,75,62,30.30,30.24,30.15,10,8,4,24,9,28,0.00,5,,340
2013-12-15,34,24,14,26,18,13,92,79,66,30.20,30.07,30.01,8,6,4,9,3,11,0.00,3,,23
2013-12-16,51,31,11,32,21,8,92,70,48,30.22,30.10,30.02,10,8,4,17,4,21,0.00,0,,345
2013-12-17,43,31,19,26,20,15,92,63,33,30.35,30.26,30.14,10,10,10,22,7,29,0.00,0,,280
2013-12-18,57,39,21,27,24,16,81,57,32,30.09,29.84,29.73,10,10,10,20,8,23,0.00,0,,205
2013-12-19,35,26,17,26,21,13,88,75,61,29.95,29.83,29.74,10,10,7,29,16,32,T,4,,14
2013-12-20,19,16,12,12,9,7,84,76,67,30.08,29.99,29.91,10,7,2,25,11,31,T,8,Snow,338
2013-12-21,26,21,16,18,14,11,84,73,62,29.95,29.86,29.78,10,9,2,22,8,27,0.01,6,Snow,31
2013-12-22,24,15,6,18,10,1,84,68,52,30.47,30.15,29.88,10,9,2,24,13,29,0.01,5,Snow,342
2013-12-23,15,10,4,2,-4,-6,73,59,44,30.70,30.62,30.48,10,10,6,20,9,23,T,5,Snow,337
2013-12-24,29,17,5,23,11,0,88,75,61,30.57,30.32,30.13,10,8,4,26,13,33,T,7,Snow,186
2013-12-25,45,29,13,25,17,11,92,65,37,30.39,30.31,30.25,10,10,7,26,9,33,0.00,2,,273
2013-12-26,51,34,17,20,17,11,84,55,26,30.32,30.22,30.15,10,10,10,13,5,15,0.00,0,,228
2013-12-27,62,39,15,26,19,11,84,52,19,30.31,30.21,30.10,10,10,10,26,8,31,0.00,0,,203
2013-12-28,60,39,18,29,22,6,78,49,20,30.19,29.97,29.76,10,10,10,35,14,40,0.00,2,,227
2013-12-29,18,11,3,3,-9,-16,67,46,24,30.49,30.38,30.21,10,10,10,37,16,45,0.00,2,,342
2013-12-30,43,23,3,24,6,-7,80,59,37,30.35,30.24,30.10,10,10,10,26,12,36,0.00,4,,223
2013-12-31,45,26,7,21,10,4,83,62,40,30.33,30.19,30.01,10,10,10,24,9,29,0.00,0,,78